sensor_id;sensor_type;location;lat;lon;timestamp;P1;durP1;ratioP1;P2;durP2;ratioP2
26690;SDS011;14307;51.718;8.938;2022-10-15T00:00:40;43.80;;;30.40;;
26690;SDS011;14307;51.718;8.938;2022-10-15T00:03:07;42.92;;;29.92;;
26690;SDS011;14307;51.718;8.938;2022-10-15T00:05:38;41.05;;;29.27;;
26690;SDS011;14307;51.718;8.938;2022-10-15T00:08:05;43.40;;;27.50;;
26690;SDS011;14307;51.718;8.938;2022-10-15T00:10:33;44.60;;;29.65;;
26690;SDS011;14307;51.718;8.938;2022-10-15T00:13:01;50.08;;;29.92;;
26690;SDS011;14307;51.718;8.938;2022-10-15T00:15:35;47.30;;;29.75;;
26690;SDS011;14307;51.718;8.938;2022-10-15T00:18:02;55.13;;;33.45;;
26690;SDS011;14307;51.718;8.938;2022-10-15T00:20:29;52.97;;;30.50;;
26690;SDS011;14307;51.718;8.938;2022-10-15T00:22:56;49.13;;;29.55;;
26690;SDS011;14307;51.718;8.938;2022-10-15T00:25:23;47.63;;;30.38;;
26690;SDS011;14307;51.718;8.938;2022-10-15T00:27:50;50.13;;;29.15;;
26690;SDS011;14307;51.718;8.938;2022-10-15T00:30:17;46.17;;;28.08;;
26690;SDS011;14307;51.718;8.938;2022-10-15T00:32:43;51.35;;;29.85;;
26690;SDS011;14307;51.718;8.938;2022-10-15T00:35:10;48.45;;;28.15;;
26690;SDS011;14307;51.718;8.938;2022-10-15T00:37:37;43.42;;;28.77;;
26690;SDS011;14307;51.718;8.938;2022-10-15T00:40:04;57.22;;;31.77;;
26690;SDS011;14307;51.718;8.938;2022-10-15T00:42:31;58.00;;;31.63;;
26690;SDS011;14307;51.718;8.938;2022-10-15T00:45:01;52.30;;;30.73;;
26690;SDS011;14307;51.718;8.938;2022-10-15T00:47:32;54.08;;;30.67;;
26690;SDS011;14307;51.718;8.938;2022-10-15T00:50:08;63.55;;;33.10;;
26690;SDS011;14307;51.718;8.938;2022-10-15T00:55:40;60.55;;;31.88;;
26690;SDS011;14307;51.718;8.938;2022-10-15T00:58:10;62.45;;;32.58;;
26690;SDS011;14307;51.718;8.938;2022-10-15T01:00:40;61.08;;;32.08;;
26690;SDS011;14307;51.718;8.938;2022-10-15T01:03:07;68.18;;;33.33;;
26690;SDS011;14307;51.718;8.938;2022-10-15T01:05:34;70.88;;;34.17;;
26690;SDS011;14307;51.718;8.938;2022-10-15T01:08:07;80.00;;;34.67;;
26690;SDS011;14307;51.718;8.938;2022-10-15T01:10:43;74.07;;;36.80;;
26690;SDS011;14307;51.718;8.938;2022-10-15T01:13:32;70.93;;;34.72;;
26690;SDS011;14307;51.718;8.938;2022-10-15T01:16:09;57.72;;;31.25;;
26690;SDS011;14307;51.718;8.938;2022-10-15T01:18:54;60.60;;;30.83;;
26690;SDS011;14307;51.718;8.938;2022-10-15T01:21:30;67.03;;;30.55;;
26690;SDS011;14307;51.718;8.938;2022-10-15T01:32:22;61.03;;;29.75;;
26690;SDS011;14307;51.718;8.938;2022-10-15T01:34:59;59.67;;;29.92;;
26690;SDS011;14307;51.718;8.938;2022-10-15T01:37:38;56.58;;;28.20;;
26690;SDS011;14307;51.718;8.938;2022-10-15T01:40:16;61.33;;;28.25;;
26690;SDS011;14307;51.718;8.938;2022-10-15T01:42:48;58.53;;;29.10;;
26690;SDS011;14307;51.718;8.938;2022-10-15T01:45:21;52.75;;;28.38;;
26690;SDS011;14307;51.718;8.938;2022-10-15T01:48:17;54.03;;;26.83;;
26690;SDS011;14307;51.718;8.938;2022-10-15T01:50:46;52.15;;;28.00;;
26690;SDS011;14307;51.718;8.938;2022-10-15T01:53:16;49.42;;;27.77;;
26690;SDS011;14307;51.718;8.938;2022-10-15T01:55:53;54.38;;;27.83;;
26690;SDS011;14307;51.718;8.938;2022-10-15T01:58:23;51.45;;;26.23;;
26690;SDS011;14307;51.718;8.938;2022-10-15T02:00:51;47.95;;;25.42;;
26690;SDS011;14307;51.718;8.938;2022-10-15T02:03:20;44.40;;;24.73;;
26690;SDS011;14307;51.718;8.938;2022-10-15T02:05:48;46.00;;;26.05;;
26690;SDS011;14307;51.718;8.938;2022-10-15T02:08:27;51.50;;;26.73;;
26690;SDS011;14307;51.718;8.938;2022-10-15T02:19:08;39.63;;;26.63;;
26690;SDS011;14307;51.718;8.938;2022-10-15T02:21:41;43.78;;;26.65;;
26690;SDS011;14307;51.718;8.938;2022-10-15T02:26:39;44.55;;;26.92;;
26690;SDS011;14307;51.718;8.938;2022-10-15T02:29:09;47.22;;;27.85;;
26690;SDS011;14307;51.718;8.938;2022-10-15T02:31:39;43.50;;;27.17;;
26690;SDS011;14307;51.718;8.938;2022-10-15T02:34:09;46.70;;;27.70;;
26690;SDS011;14307;51.718;8.938;2022-10-15T02:36:40;46.50;;;27.30;;
26690;SDS011;14307;51.718;8.938;2022-10-15T02:39:11;48.97;;;27.55;;
26690;SDS011;14307;51.718;8.938;2022-10-15T02:41:41;50.60;;;27.97;;
26690;SDS011;14307;51.718;8.938;2022-10-15T02:44:11;48.13;;;28.30;;
26690;SDS011;14307;51.718;8.938;2022-10-15T02:46:38;49.22;;;27.13;;
26690;SDS011;14307;51.718;8.938;2022-10-15T02:49:04;47.97;;;27.30;;
26690;SDS011;14307;51.718;8.938;2022-10-15T02:51:32;45.40;;;27.38;;
26690;SDS011;14307;51.718;8.938;2022-10-15T02:54:00;44.35;;;24.55;;
26690;SDS011;14307;51.718;8.938;2022-10-15T02:56:27;44.50;;;25.90;;
26690;SDS011;14307;51.718;8.938;2022-10-15T02:58:55;47.28;;;25.25;;
26690;SDS011;14307;51.718;8.938;2022-10-15T03:01:22;43.15;;;26.30;;
26690;SDS011;14307;51.718;8.938;2022-10-15T03:03:49;43.80;;;24.90;;
26690;SDS011;14307;51.718;8.938;2022-10-15T03:06:16;52.70;;;27.90;;
26690;SDS011;14307;51.718;8.938;2022-10-15T03:08:45;45.08;;;26.73;;
26690;SDS011;14307;51.718;8.938;2022-10-15T03:11:11;46.50;;;27.05;;
26690;SDS011;14307;51.718;8.938;2022-10-15T03:13:38;49.78;;;26.70;;
26690;SDS011;14307;51.718;8.938;2022-10-15T03:16:07;46.72;;;27.52;;
26690;SDS011;14307;51.718;8.938;2022-10-15T03:18:37;46.50;;;28.02;;
26690;SDS011;14307;51.718;8.938;2022-10-15T03:21:07;45.35;;;27.35;;
26690;SDS011;14307;51.718;8.938;2022-10-15T03:23:34;50.97;;;26.95;;
26690;SDS011;14307;51.718;8.938;2022-10-15T03:26:09;47.22;;;24.38;;
26690;SDS011;14307;51.718;8.938;2022-10-15T03:28:36;50.58;;;28.08;;
26690;SDS011;14307;51.718;8.938;2022-10-15T03:31:03;48.78;;;27.45;;
26690;SDS011;14307;51.718;8.938;2022-10-15T03:33:30;47.25;;;27.75;;
26690;SDS011;14307;51.718;8.938;2022-10-15T03:35:59;53.05;;;28.23;;
26690;SDS011;14307;51.718;8.938;2022-10-15T03:38:26;54.50;;;27.48;;
26690;SDS011;14307;51.718;8.938;2022-10-15T03:40:53;52.15;;;27.98;;
26690;SDS011;14307;51.718;8.938;2022-10-15T03:43:35;56.20;;;29.85;;
26690;SDS011;14307;51.718;8.938;2022-10-15T03:46:07;57.78;;;31.05;;
26690;SDS011;14307;51.718;8.938;2022-10-15T03:48:41;52.55;;;29.02;;
26690;SDS011;14307;51.718;8.938;2022-10-15T03:51:10;57.60;;;29.83;;
26690;SDS011;14307;51.718;8.938;2022-10-15T03:53:40;57.75;;;30.30;;
26690;SDS011;14307;51.718;8.938;2022-10-15T03:56:06;65.60;;;33.75;;
26690;SDS011;14307;51.718;8.938;2022-10-15T03:58:36;63.95;;;34.03;;
26690;SDS011;14307;51.718;8.938;2022-10-15T04:01:11;60.47;;;32.45;;
26690;SDS011;14307;51.718;8.938;2022-10-15T04:03:39;77.05;;;35.45;;
26690;SDS011;14307;51.718;8.938;2022-10-15T04:06:06;81.03;;;36.15;;
26690;SDS011;14307;51.718;8.938;2022-10-15T04:08:34;86.00;;;38.85;;
26690;SDS011;14307;51.718;8.938;2022-10-15T04:11:16;92.10;;;38.45;;
26690;SDS011;14307;51.718;8.938;2022-10-15T04:13:42;97.55;;;39.28;;
26690;SDS011;14307;51.718;8.938;2022-10-15T04:16:14;84.65;;;33.60;;
26690;SDS011;14307;51.718;8.938;2022-10-15T04:18:41;69.50;;;31.20;;
26690;SDS011;14307;51.718;8.938;2022-10-15T04:21:08;78.95;;;34.67;;
26690;SDS011;14307;51.718;8.938;2022-10-15T04:23:37;83.80;;;38.17;;
26690;SDS011;14307;51.718;8.938;2022-10-15T04:26:28;90.97;;;38.08;;
26690;SDS011;14307;51.718;8.938;2022-10-15T04:28:58;117.03;;;45.00;;
26690;SDS011;14307;51.718;8.938;2022-10-15T04:31:25;100.57;;;40.78;;
26690;SDS011;14307;51.718;8.938;2022-10-15T04:33:52;106.70;;;42.67;;
26690;SDS011;14307;51.718;8.938;2022-10-15T04:36:21;120.78;;;43.25;;
26690;SDS011;14307;51.718;8.938;2022-10-15T04:38:56;122.35;;;43.42;;
26690;SDS011;14307;51.718;8.938;2022-10-15T04:41:33;113.85;;;45.20;;
26690;SDS011;14307;51.718;8.938;2022-10-15T04:44:06;125.03;;;45.58;;
26690;SDS011;14307;51.718;8.938;2022-10-15T04:46:35;129.43;;;44.38;;
26690;SDS011;14307;51.718;8.938;2022-10-15T04:49:16;123.93;;;46.30;;
26690;SDS011;14307;51.718;8.938;2022-10-15T04:51:43;119.63;;;44.08;;
26690;SDS011;14307;51.718;8.938;2022-10-15T04:54:13;131.75;;;46.50;;
26690;SDS011;14307;51.718;8.938;2022-10-15T04:56:59;131.95;;;45.85;;
26690;SDS011;14307;51.718;8.938;2022-10-15T04:59:26;125.03;;;43.15;;
26690;SDS011;14307;51.718;8.938;2022-10-15T05:02:11;112.53;;;43.00;;
26690;SDS011;14307;51.718;8.938;2022-10-15T05:04:38;128.75;;;44.92;;
26690;SDS011;14307;51.718;8.938;2022-10-15T05:07:05;150.60;;;45.65;;
26690;SDS011;14307;51.718;8.938;2022-10-15T05:09:33;121.47;;;43.80;;
26690;SDS011;14307;51.718;8.938;2022-10-15T05:12:03;121.80;;;41.60;;
26690;SDS011;14307;51.718;8.938;2022-10-15T05:14:30;109.25;;;37.05;;
26690;SDS011;14307;51.718;8.938;2022-10-15T05:17:21;116.05;;;38.35;;
26690;SDS011;14307;51.718;8.938;2022-10-15T05:19:48;125.85;;;40.42;;
26690;SDS011;14307;51.718;8.938;2022-10-15T05:22:19;105.13;;;37.70;;
26690;SDS011;14307;51.718;8.938;2022-10-15T05:24:51;113.57;;;37.35;;
26690;SDS011;14307;51.718;8.938;2022-10-15T05:27:29;128.45;;;38.60;;
26690;SDS011;14307;51.718;8.938;2022-10-15T05:29:56;136.07;;;42.38;;
26690;SDS011;14307;51.718;8.938;2022-10-15T05:32:33;161.00;;;45.85;;
26690;SDS011;14307;51.718;8.938;2022-10-15T05:35:03;147.68;;;45.03;;
26690;SDS011;14307;51.718;8.938;2022-10-15T05:37:50;132.80;;;42.70;;
26690;SDS011;14307;51.718;8.938;2022-10-15T05:40:16;132.43;;;43.70;;
26690;SDS011;14307;51.718;8.938;2022-10-15T05:42:59;141.00;;;45.20;;
26690;SDS011;14307;51.718;8.938;2022-10-15T05:45:26;141.38;;;44.47;;
26690;SDS011;14307;51.718;8.938;2022-10-15T05:47:56;117.20;;;40.10;;
26690;SDS011;14307;51.718;8.938;2022-10-15T05:50:23;117.28;;;41.40;;
26690;SDS011;14307;51.718;8.938;2022-10-15T05:52:55;121.22;;;42.35;;
26690;SDS011;14307;51.718;8.938;2022-10-15T05:55:36;118.35;;;42.50;;
26690;SDS011;14307;51.718;8.938;2022-10-15T05:58:18;122.13;;;46.63;;
26690;SDS011;14307;51.718;8.938;2022-10-15T06:00:59;131.57;;;46.88;;
26690;SDS011;14307;51.718;8.938;2022-10-15T06:03:31;138.85;;;47.97;;
26690;SDS011;14307;51.718;8.938;2022-10-15T06:05:58;141.73;;;48.05;;
26690;SDS011;14307;51.718;8.938;2022-10-15T06:08:30;151.60;;;53.75;;
26690;SDS011;14307;51.718;8.938;2022-10-15T06:11:00;157.88;;;53.63;;
26690;SDS011;14307;51.718;8.938;2022-10-15T06:13:35;158.00;;;55.53;;
26690;SDS011;14307;51.718;8.938;2022-10-15T06:16:03;153.15;;;54.45;;
26690;SDS011;14307;51.718;8.938;2022-10-15T06:18:30;158.90;;;54.22;;
26690;SDS011;14307;51.718;8.938;2022-10-15T06:20:59;167.80;;;53.75;;
26690;SDS011;14307;51.718;8.938;2022-10-15T06:23:26;162.05;;;53.78;;
26690;SDS011;14307;51.718;8.938;2022-10-15T06:25:52;173.07;;;54.40;;
26690;SDS011;14307;51.718;8.938;2022-10-15T06:28:21;159.55;;;52.17;;
26690;SDS011;14307;51.718;8.938;2022-10-15T06:30:48;153.80;;;52.03;;
26690;SDS011;14307;51.718;8.938;2022-10-15T06:33:14;162.40;;;57.25;;
26690;SDS011;14307;51.718;8.938;2022-10-15T06:35:42;161.15;;;54.58;;
26690;SDS011;14307;51.718;8.938;2022-10-15T06:38:09;172.40;;;55.60;;
26690;SDS011;14307;51.718;8.938;2022-10-15T06:40:36;173.18;;;58.40;;
26690;SDS011;14307;51.718;8.938;2022-10-15T06:43:07;163.63;;;57.25;;
26690;SDS011;14307;51.718;8.938;2022-10-15T06:45:36;176.43;;;58.67;;
26690;SDS011;14307;51.718;8.938;2022-10-15T06:48:08;175.18;;;59.40;;
26690;SDS011;14307;51.718;8.938;2022-10-15T06:50:36;179.75;;;58.17;;
26690;SDS011;14307;51.718;8.938;2022-10-15T06:53:04;167.68;;;58.55;;
26690;SDS011;14307;51.718;8.938;2022-10-15T06:55:31;172.15;;;59.72;;
26690;SDS011;14307;51.718;8.938;2022-10-15T06:57:58;173.38;;;62.08;;
26690;SDS011;14307;51.718;8.938;2022-10-15T07:00:27;154.13;;;59.60;;
26690;SDS011;14307;51.718;8.938;2022-10-15T07:02:54;166.55;;;60.58;;
26690;SDS011;14307;51.718;8.938;2022-10-15T07:05:21;168.45;;;58.67;;
26690;SDS011;14307;51.718;8.938;2022-10-15T07:07:51;174.32;;;60.45;;
26690;SDS011;14307;51.718;8.938;2022-10-15T07:10:23;176.43;;;60.85;;
26690;SDS011;14307;51.718;8.938;2022-10-15T07:12:51;158.82;;;59.28;;
26690;SDS011;14307;51.718;8.938;2022-10-15T07:15:20;160.05;;;59.80;;
26690;SDS011;14307;51.718;8.938;2022-10-15T07:17:47;143.32;;;56.75;;
26690;SDS011;14307;51.718;8.938;2022-10-15T07:20:15;139.35;;;56.17;;
26690;SDS011;14307;51.718;8.938;2022-10-15T07:22:49;144.00;;;56.35;;
26690;SDS011;14307;51.718;8.938;2022-10-15T07:25:16;135.85;;;55.92;;
26690;SDS011;14307;51.718;8.938;2022-10-15T07:27:43;148.80;;;58.35;;
26690;SDS011;14307;51.718;8.938;2022-10-15T07:30:10;144.43;;;57.70;;
26690;SDS011;14307;51.718;8.938;2022-10-15T07:32:37;128.80;;;56.78;;
26690;SDS011;14307;51.718;8.938;2022-10-15T07:35:07;122.50;;;53.92;;
26690;SDS011;14307;51.718;8.938;2022-10-15T07:37:34;114.43;;;51.25;;
26690;SDS011;14307;51.718;8.938;2022-10-15T07:40:00;103.15;;;48.00;;
26690;SDS011;14307;51.718;8.938;2022-10-15T07:42:27;110.57;;;48.75;;
26690;SDS011;14307;51.718;8.938;2022-10-15T07:44:54;117.55;;;49.65;;
26690;SDS011;14307;51.718;8.938;2022-10-15T07:47:23;98.45;;;46.72;;
26690;SDS011;14307;51.718;8.938;2022-10-15T07:49:50;95.18;;;43.92;;
26690;SDS011;14307;51.718;8.938;2022-10-15T07:52:17;98.97;;;47.05;;
26690;SDS011;14307;51.718;8.938;2022-10-15T07:54:44;90.63;;;44.63;;
26690;SDS011;14307;51.718;8.938;2022-10-15T07:57:15;94.78;;;44.63;;
26690;SDS011;14307;51.718;8.938;2022-10-15T07:59:42;83.25;;;40.92;;
26690;SDS011;14307;51.718;8.938;2022-10-15T08:02:12;82.05;;;40.67;;
26690;SDS011;14307;51.718;8.938;2022-10-15T08:04:41;86.57;;;43.45;;
26690;SDS011;14307;51.718;8.938;2022-10-15T08:07:08;73.28;;;39.17;;
26690;SDS011;14307;51.718;8.938;2022-10-15T08:09:35;70.63;;;39.30;;
26690;SDS011;14307;51.718;8.938;2022-10-15T08:12:02;70.13;;;38.85;;
26690;SDS011;14307;51.718;8.938;2022-10-15T08:14:32;53.53;;;33.33;;
26690;SDS011;14307;51.718;8.938;2022-10-15T08:17:00;55.13;;;34.67;;
26690;SDS011;14307;51.718;8.938;2022-10-15T08:19:28;57.80;;;33.95;;
26690;SDS011;14307;51.718;8.938;2022-10-15T08:21:55;49.75;;;31.55;;
26690;SDS011;14307;51.718;8.938;2022-10-15T08:24:23;44.58;;;28.88;;
26690;SDS011;14307;51.718;8.938;2022-10-15T08:26:49;37.45;;;27.50;;
26690;SDS011;14307;51.718;8.938;2022-10-15T08:29:17;35.80;;;26.52;;
26690;SDS011;14307;51.718;8.938;2022-10-15T08:31:43;35.15;;;27.75;;
26690;SDS011;14307;51.718;8.938;2022-10-15T08:34:10;36.58;;;29.80;;
26690;SDS011;14307;51.718;8.938;2022-10-15T08:36:37;32.65;;;29.10;;
26690;SDS011;14307;51.718;8.938;2022-10-15T08:39:03;32.45;;;28.92;;
26690;SDS011;14307;51.718;8.938;2022-10-15T08:44:40;32.83;;;29.70;;
26690;SDS011;14307;51.718;8.938;2022-10-15T08:47:30;31.77;;;28.70;;
26690;SDS011;14307;51.718;8.938;2022-10-15T08:52:46;34.20;;;30.90;;
26690;SDS011;14307;51.718;8.938;2022-10-15T08:55:15;30.98;;;28.25;;
26690;SDS011;14307;51.718;8.938;2022-10-15T09:00:30;29.30;;;26.58;;
26690;SDS011;14307;51.718;8.938;2022-10-15T09:03:06;30.58;;;27.92;;
26690;SDS011;14307;51.718;8.938;2022-10-15T09:11:58;32.40;;;29.38;;
26690;SDS011;14307;51.718;8.938;2022-10-15T09:14:30;32.63;;;29.85;;
26690;SDS011;14307;51.718;8.938;2022-10-15T09:17:03;31.60;;;28.95;;
26690;SDS011;14307;51.718;8.938;2022-10-15T09:19:33;29.73;;;27.45;;
26690;SDS011;14307;51.718;8.938;2022-10-15T09:22:05;33.13;;;30.40;;
26690;SDS011;14307;51.718;8.938;2022-10-15T09:24:38;32.80;;;30.02;;
26690;SDS011;14307;51.718;8.938;2022-10-15T09:27:10;33.00;;;30.30;;
26690;SDS011;14307;51.718;8.938;2022-10-15T09:32:19;31.67;;;28.88;;
26690;SDS011;14307;51.718;8.938;2022-10-15T09:37:51;30.38;;;27.83;;
26690;SDS011;14307;51.718;8.938;2022-10-15T09:43:30;28.80;;;26.27;;
26690;SDS011;14307;51.718;8.938;2022-10-15T09:46:01;29.17;;;26.67;;
26690;SDS011;14307;51.718;8.938;2022-10-15T09:48:47;29.80;;;27.50;;
26690;SDS011;14307;51.718;8.938;2022-10-15T09:51:23;29.20;;;26.90;;
26690;SDS011;14307;51.718;8.938;2022-10-15T09:54:00;27.27;;;25.13;;
26690;SDS011;14307;51.718;8.938;2022-10-15T09:56:44;27.58;;;25.45;;
26690;SDS011;14307;51.718;8.938;2022-10-15T09:59:16;26.10;;;24.10;;
26690;SDS011;14307;51.718;8.938;2022-10-15T10:02:02;27.00;;;24.90;;
26690;SDS011;14307;51.718;8.938;2022-10-15T10:04:30;24.98;;;23.10;;
26690;SDS011;14307;51.718;8.938;2022-10-15T10:07:00;26.00;;;24.33;;
26690;SDS011;14307;51.718;8.938;2022-10-15T10:09:33;26.40;;;24.50;;
26690;SDS011;14307;51.718;8.938;2022-10-15T10:12:19;23.85;;;22.25;;
26690;SDS011;14307;51.718;8.938;2022-10-15T10:15:02;24.92;;;23.33;;
26690;SDS011;14307;51.718;8.938;2022-10-15T10:17:33;29.02;;;27.23;;
26690;SDS011;14307;51.718;8.938;2022-10-15T10:20:01;29.23;;;27.02;;
26690;SDS011;14307;51.718;8.938;2022-10-15T10:22:40;26.92;;;25.33;;
26690;SDS011;14307;51.718;8.938;2022-10-15T10:27:52;28.55;;;26.75;;
26690;SDS011;14307;51.718;8.938;2022-10-15T10:30:21;26.42;;;24.60;;
26690;SDS011;14307;51.718;8.938;2022-10-15T10:32:53;28.38;;;26.58;;
26690;SDS011;14307;51.718;8.938;2022-10-15T10:35:24;26.70;;;25.10;;
26690;SDS011;14307;51.718;8.938;2022-10-15T10:37:54;27.60;;;25.60;;
26690;SDS011;14307;51.718;8.938;2022-10-15T10:40:27;26.08;;;24.48;;
26690;SDS011;14307;51.718;8.938;2022-10-15T10:48:24;23.00;;;21.42;;
26690;SDS011;14307;51.718;8.938;2022-10-15T10:51:04;24.48;;;22.83;;
26690;SDS011;14307;51.718;8.938;2022-10-15T10:56:33;25.48;;;23.92;;
26690;SDS011;14307;51.718;8.938;2022-10-15T10:59:09;25.25;;;23.80;;
26690;SDS011;14307;51.718;8.938;2022-10-15T11:01:45;24.42;;;22.92;;
26690;SDS011;14307;51.718;8.938;2022-10-15T11:04:20;25.80;;;24.10;;
26690;SDS011;14307;51.718;8.938;2022-10-15T11:07:01;25.35;;;23.65;;
26690;SDS011;14307;51.718;8.938;2022-10-15T11:09:50;26.08;;;24.38;;
26690;SDS011;14307;51.718;8.938;2022-10-15T11:15:16;23.85;;;22.55;;
26690;SDS011;14307;51.718;8.938;2022-10-15T11:26:42;22.80;;;21.52;;
26690;SDS011;14307;51.718;8.938;2022-10-15T11:29:40;24.00;;;22.42;;
26690;SDS011;14307;51.718;8.938;2022-10-15T11:41:38;22.77;;;21.48;;
26690;SDS011;14307;51.718;8.938;2022-10-15T11:47:46;24.50;;;23.00;;
26690;SDS011;14307;51.718;8.938;2022-10-15T11:50:41;24.55;;;22.95;;
26690;SDS011;14307;51.718;8.938;2022-10-15T11:58:16;25.75;;;24.05;;
26690;SDS011;14307;51.718;8.938;2022-10-15T12:01:05;24.02;;;22.58;;
26690;SDS011;14307;51.718;8.938;2022-10-15T12:03:44;24.00;;;22.60;;
26690;SDS011;14307;51.718;8.938;2022-10-15T12:06:23;22.25;;;20.98;;
26690;SDS011;14307;51.718;8.938;2022-10-15T12:08:53;22.95;;;21.52;;
26690;SDS011;14307;51.718;8.938;2022-10-15T12:19:25;20.30;;;19.20;;
26690;SDS011;14307;51.718;8.938;2022-10-15T12:22:04;21.08;;;19.98;;
26690;SDS011;14307;51.718;8.938;2022-10-15T12:32:43;20.50;;;19.50;;
26690;SDS011;14307;51.718;8.938;2022-10-15T12:37:51;19.17;;;18.17;;
26690;SDS011;14307;51.718;8.938;2022-10-15T12:42:57;16.95;;;16.25;;
26690;SDS011;14307;51.718;8.938;2022-10-15T12:45:39;18.75;;;17.75;;
26690;SDS011;14307;51.718;8.938;2022-10-15T12:50:41;17.35;;;16.55;;
26690;SDS011;14307;51.718;8.938;2022-10-15T13:06:35;15.60;;;14.50;;
26690;SDS011;14307;51.718;8.938;2022-10-15T13:09:13;12.80;;;12.15;;
26690;SDS011;14307;51.718;8.938;2022-10-15T13:11:54;12.68;;;11.98;;
26690;SDS011;14307;51.718;8.938;2022-10-15T13:14:27;11.88;;;11.25;;
26690;SDS011;14307;51.718;8.938;2022-10-15T13:16:58;12.57;;;11.38;;
26690;SDS011;14307;51.718;8.938;2022-10-15T13:19:33;12.05;;;11.13;;
26690;SDS011;14307;51.718;8.938;2022-10-15T13:22:05;12.20;;;11.18;;
26690;SDS011;14307;51.718;8.938;2022-10-15T13:24:44;11.43;;;10.73;;
26690;SDS011;14307;51.718;8.938;2022-10-15T13:27:15;11.80;;;11.10;;
26690;SDS011;14307;51.718;8.938;2022-10-15T13:29:58;12.00;;;11.25;;
26690;SDS011;14307;51.718;8.938;2022-10-15T13:32:28;12.75;;;11.70;;
26690;SDS011;14307;51.718;8.938;2022-10-15T13:34:59;11.95;;;11.35;;
26690;SDS011;14307;51.718;8.938;2022-10-15T13:37:31;11.20;;;10.50;;
26690;SDS011;14307;51.718;8.938;2022-10-15T13:40:02;12.70;;;12.10;;
26690;SDS011;14307;51.718;8.938;2022-10-15T13:42:33;12.82;;;12.05;;
26690;SDS011;14307;51.718;8.938;2022-10-15T13:45:02;12.10;;;11.57;;
26690;SDS011;14307;51.718;8.938;2022-10-15T13:47:40;11.77;;;11.27;;
26690;SDS011;14307;51.718;8.938;2022-10-15T13:50:21;13.50;;;12.85;;
26690;SDS011;14307;51.718;8.938;2022-10-15T13:55:38;14.50;;;13.68;;
26690;SDS011;14307;51.718;8.938;2022-10-15T13:58:20;14.40;;;13.80;;
26690;SDS011;14307;51.718;8.938;2022-10-15T14:03:28;14.98;;;14.27;;
26690;SDS011;14307;51.718;8.938;2022-10-15T14:06:08;14.63;;;14.02;;
26690;SDS011;14307;51.718;8.938;2022-10-15T14:08:42;14.18;;;13.65;;
26690;SDS011;14307;51.718;8.938;2022-10-15T14:11:09;14.95;;;14.05;;
26690;SDS011;14307;51.718;8.938;2022-10-15T14:13:47;15.13;;;14.20;;
26690;SDS011;14307;51.718;8.938;2022-10-15T14:16:28;14.73;;;13.80;;
26690;SDS011;14307;51.718;8.938;2022-10-15T14:21:30;14.82;;;14.13;;
26690;SDS011;14307;51.718;8.938;2022-10-15T14:24:02;13.93;;;13.43;;
26690;SDS011;14307;51.718;8.938;2022-10-15T14:26:31;14.40;;;13.80;;
26690;SDS011;14307;51.718;8.938;2022-10-15T14:28:59;14.90;;;14.30;;
26690;SDS011;14307;51.718;8.938;2022-10-15T14:31:47;15.32;;;14.73;;
26690;SDS011;14307;51.718;8.938;2022-10-15T14:36:56;15.27;;;14.57;;
26690;SDS011;14307;51.718;8.938;2022-10-15T14:39:27;15.35;;;14.75;;
26690;SDS011;14307;51.718;8.938;2022-10-15T14:41:56;14.40;;;13.80;;
26690;SDS011;14307;51.718;8.938;2022-10-15T14:44:47;15.82;;;14.85;;
26690;SDS011;14307;51.718;8.938;2022-10-15T14:47:23;14.43;;;13.82;;
26690;SDS011;14307;51.718;8.938;2022-10-15T14:49:54;14.40;;;13.80;;
26690;SDS011;14307;51.718;8.938;2022-10-15T14:52:24;15.57;;;14.48;;
26690;SDS011;14307;51.718;8.938;2022-10-15T14:55:04;15.65;;;14.82;;
26690;SDS011;14307;51.718;8.938;2022-10-15T14:57:39;13.93;;;13.32;;
26690;SDS011;14307;51.718;8.938;2022-10-15T15:00:25;15.50;;;14.60;;
26690;SDS011;14307;51.718;8.938;2022-10-15T15:02:55;14.75;;;14.15;;
26690;SDS011;14307;51.718;8.938;2022-10-15T15:05:24;13.75;;;13.20;;
26690;SDS011;14307;51.718;8.938;2022-10-15T15:07:53;14.55;;;13.93;;
26690;SDS011;14307;51.718;8.938;2022-10-15T15:10:22;13.50;;;12.90;;
26690;SDS011;14307;51.718;8.938;2022-10-15T15:12:54;13.75;;;13.10;;
26690;SDS011;14307;51.718;8.938;2022-10-15T15:15:23;14.32;;;13.63;;
26690;SDS011;14307;51.718;8.938;2022-10-15T15:17:52;14.02;;;13.43;;
26690;SDS011;14307;51.718;8.938;2022-10-15T15:20:19;13.60;;;13.00;;
26690;SDS011;14307;51.718;8.938;2022-10-15T15:22:47;16.13;;;15.05;;
26690;SDS011;14307;51.718;8.938;2022-10-15T15:25:19;16.05;;;15.05;;
26690;SDS011;14307;51.718;8.938;2022-10-15T15:27:53;16.23;;;14.82;;
26690;SDS011;14307;51.718;8.938;2022-10-15T15:30:21;14.73;;;13.57;;
26690;SDS011;14307;51.718;8.938;2022-10-15T15:32:49;13.45;;;12.75;;
26690;SDS011;14307;51.718;8.938;2022-10-15T15:37:56;14.45;;;13.55;;
26690;SDS011;14307;51.718;8.938;2022-10-15T15:40:23;14.35;;;13.55;;
26690;SDS011;14307;51.718;8.938;2022-10-15T15:42:50;13.65;;;12.95;;
26690;SDS011;14307;51.718;8.938;2022-10-15T15:45:21;13.63;;;12.73;;
26690;SDS011;14307;51.718;8.938;2022-10-15T15:47:50;12.40;;;11.80;;
26690;SDS011;14307;51.718;8.938;2022-10-15T15:50:17;13.00;;;12.30;;
26690;SDS011;14307;51.718;8.938;2022-10-15T15:52:45;14.00;;;13.05;;
26690;SDS011;14307;51.718;8.938;2022-10-15T15:55:12;12.88;;;12.20;;
26690;SDS011;14307;51.718;8.938;2022-10-15T15:57:40;12.65;;;11.95;;
26690;SDS011;14307;51.718;8.938;2022-10-15T16:00:07;12.88;;;12.00;;
26690;SDS011;14307;51.718;8.938;2022-10-15T16:02:35;11.63;;;10.93;;
26690;SDS011;14307;51.718;8.938;2022-10-15T16:05:06;11.50;;;10.90;;
26690;SDS011;14307;51.718;8.938;2022-10-15T16:07:36;10.70;;;10.20;;
26690;SDS011;14307;51.718;8.938;2022-10-15T16:10:02;9.80;;;9.30;;
26690;SDS011;14307;51.718;8.938;2022-10-15T16:12:31;10.05;;;9.35;;
26690;SDS011;14307;51.718;8.938;2022-10-15T16:14:59;8.52;;;8.02;;
26690;SDS011;14307;51.718;8.938;2022-10-15T16:17:26;8.27;;;7.68;;
26690;SDS011;14307;51.718;8.938;2022-10-15T16:19:53;9.18;;;8.68;;
26690;SDS011;14307;51.718;8.938;2022-10-15T16:22:19;7.30;;;6.90;;
26690;SDS011;14307;51.718;8.938;2022-10-15T16:24:46;7.60;;;7.20;;
26690;SDS011;14307;51.718;8.938;2022-10-15T16:27:13;7.90;;;7.43;;
26690;SDS011;14307;51.718;8.938;2022-10-15T16:29:39;7.65;;;7.00;;
26690;SDS011;14307;51.718;8.938;2022-10-15T16:32:06;8.63;;;7.97;;
26690;SDS011;14307;51.718;8.938;2022-10-15T16:34:35;8.93;;;8.25;;
26690;SDS011;14307;51.718;8.938;2022-10-15T16:37:01;6.82;;;6.43;;
26690;SDS011;14307;51.718;8.938;2022-10-15T16:39:28;6.82;;;6.43;;
26690;SDS011;14307;51.718;8.938;2022-10-15T16:41:55;6.20;;;5.90;;
26690;SDS011;14307;51.718;8.938;2022-10-15T16:44:22;7.20;;;6.20;;
26690;SDS011;14307;51.718;8.938;2022-10-15T16:46:49;6.80;;;6.38;;
26690;SDS011;14307;51.718;8.938;2022-10-15T16:49:15;7.35;;;6.80;;
26690;SDS011;14307;51.718;8.938;2022-10-15T16:51:42;7.15;;;6.55;;
26690;SDS011;14307;51.718;8.938;2022-10-15T16:54:11;5.90;;;5.35;;
26690;SDS011;14307;51.718;8.938;2022-10-15T16:56:38;5.32;;;5.05;;
26690;SDS011;14307;51.718;8.938;2022-10-15T16:59:05;6.85;;;5.07;;
26690;SDS011;14307;51.718;8.938;2022-10-15T17:01:32;4.95;;;4.60;;